Time;durP1;ratioP1;P1;durP2;ratioP2;P2;SDS_P1;SDS_P2;PMS_P1;PMS_P2;Temp;Humidity;BMP_temperature;BMP_pressure;BME280_temperature;BME280_humidity;BME280_pressure;Samples;Min_cycle;Max_cycle;Signal;HPM_P1;HPM_P2
2022/03/08 00:01:16;;;;;;;;;;;-1.10;99.90;;;-3.01;80.59;102043.44;2566615;30;138543;-41
2022/03/08 00:03:44;;;;;;;;;;;-1.10;99.90;;;-3.01;80.99;102045.25;2572116;30;137010;-42
2022/03/08 00:06:12;;;;;;;;;;;-1.10;99.90;;;-3.03;80.83;102037.34;2570364;30;138159;-41
2022/03/08 00:08:42;;;;;;;;;;;-1.20;99.90;;;-2.98;79.83;102039.72;2569511;30;137925;-42
2022/03/08 00:11:10;;;;;;;;;;;-1.10;99.90;;;-3.02;79.76;102028.38;2572315;30;138321;-42
2022/03/08 00:13:38;;;;;;;;;;;-1.10;99.90;;;-3.09;80.40;102022.53;2571248;30;137899;-41
2022/03/08 00:16:06;;;;;;;;;;;-1.20;99.90;;;-3.07;80.71;102025.97;2571752;30;137117;-42
2022/03/08 00:18:33;;;;;;;;;;;-1.20;99.90;;;-3.10;80.37;102019.94;2570058;30;137139;-41
2022/03/08 00:21:00;;;;;;;;;;;-1.20;99.90;;;-3.16;80.12;102023.88;2570684;30;138221;-42
2022/03/08 00:23:28;;;;;;;;;;;-1.20;99.90;;;-3.21;80.28;102012.59;2569926;30;137084;-41
2022/03/08 00:25:56;;;;;;;;;;;-1.30;99.90;;;-3.23;80.21;102007.38;2570615;30;138349;-41
2022/03/08 00:28:24;;;;;;;;;;;-1.30;99.90;;;-3.26;80.13;102009.34;2569164;30;137604;-41
2022/03/08 00:30:51;;;;;;;;;;;-1.30;99.90;;;-3.30;80.23;102008.69;2571041;30;138286;-43
2022/03/08 00:33:20;;;;;;;;;;;-1.40;99.90;;;-3.29;80.32;102009.53;2569528;30;138475;-41
2022/03/08 00:35:47;;;;;;;;;;;-1.40;99.90;;;-3.26;80.75;102012.03;2570637;30;138213;-43
2022/03/08 00:38:15;;;;;;;;;;;-1.40;99.90;;;-3.26;81.44;102012.03;2571022;30;138605;-42
2022/03/08 00:40:43;;;;;;;;;;;-1.40;99.90;;;-3.03;80.51;102010.63;2571302;30;138395;-42
2022/03/08 00:43:10;;;;;;;;;;;-1.30;99.90;;;-3.01;81.07;102008.72;2572879;30;136800;-41
2022/03/08 00:45:38;;;;;;;;;;;-1.30;99.90;;;-3.10;80.40;102001.25;2568350;30;138070;-41
2022/03/08 00:48:06;;;;;;;;;;;-1.20;99.90;;;-3.08;80.64;102010.91;2572317;30;136762;-41
2022/03/08 00:50:34;;;;;;;;;;;-1.20;99.90;;;-3.05;80.46;102010.72;2570029;30;138216;-42
2022/03/08 00:53:02;;;;;;;;;;;-1.20;99.90;;;-2.94;80.63;102006.50;2569377;30;139371;-41
2022/03/08 00:55:32;;;;;;;;;;;-1.20;99.90;;;-3.00;80.56;102005.09;2569115;30;140298;-41
2022/03/08 00:57:59;;;;;;;;;;;-1.20;99.90;;;-2.94;80.20;102010.06;2569522;30;137475;-42
2022/03/08 01:00:29;;;;;;;;;;;-1.10;99.90;;;-2.97;80.29;102004.03;2569245;30;138215;-49
2022/03/08 01:02:57;;;;;;;;;;;-1.10;99.90;;;-2.94;80.92;102002.03;2571085;30;137520;-41
2022/03/08 01:05:25;;;;;;;;;;;-1.10;99.90;;;-2.99;80.71;102006.81;2570303;30;138330;-41
2022/03/08 01:07:53;;;;;;;;;;;-1.10;99.90;;;-2.99;80.78;101998.81;2569558;30;137628;-41
2022/03/08 01:10:25;;;;;;;;;;;-1.20;99.90;;;-2.93;79.72;101997.53;2570812;30;138443;-41
2022/03/08 01:12:53;;;;;;;;;;;-1.10;99.90;;;-2.89;79.99;101986.59;2571311;30;137315;-40
2022/03/08 01:15:24;;;;;;;;;;;-1.10;99.90;;;-2.96;80.39;101990.59;2567629;30;138145;-40
2022/03/08 01:17:54;;;;;;;;;;;-1.10;99.90;;;-3.01;80.67;101998.03;2568568;30;137069;-40
2022/03/08 01:20:22;;;;;;;;;;;-1.10;99.90;;;-2.98;80.81;101995.19;2565481;30;138465;-41
2022/03/08 01:22:53;;;;;;;;;;;-1.10;99.90;;;-2.98;81.01;101988.97;2567558;30;139123;-40
2022/03/08 01:25:22;;;;;;;;;;;-1.20;99.90;;;-3.05;80.79;101993.81;2568427;30;138463;-40
2022/03/08 01:27:52;;;;;;;;;;;-1.20;99.90;;;-3.03;81.02;101989.28;2568693;30;136922;-40
2022/03/08 01:30:22;;;;;;;;;;;-1.20;99.90;;;-3.08;81.01;101988.66;2568229;30;139069;-40
2022/03/08 01:32:50;;;;;;;;;;;-1.20;99.90;;;-3.16;81.27;101989.16;2568219;30;138450;-40
2022/03/08 01:35:18;;;;;;;;;;;-1.30;99.90;;;-3.22;81.26;101986.84;2568207;30;139328;-40
2022/03/08 01:37:48;;;;;;;;;;;-1.30;99.90;;;-3.27;81.58;101983.59;2566277;30;137482;-40
2022/03/08 01:40:16;;;;;;;;;;;-1.30;99.90;;;-3.29;81.46;101972.16;2568151;30;138074;-40
2022/03/08 01:42:47;;;;;;;;;;;-1.40;99.90;;;-3.33;81.99;101977.69;2568023;30;139621;-40
2022/03/08 01:45:20;;;;;;;;;;;-1.40;99.90;;;-3.30;82.31;101975.78;2568763;30;138953;-41
2022/03/08 01:47:48;;;;;;;;;;;-1.40;99.90;;;-3.34;81.85;101970.63;2567692;30;136974;-40
2022/03/08 01:50:17;;;;;;;;;;;-1.50;99.90;;;-3.29;81.77;101966.81;2568022;30;139089;-40
2022/03/08 01:52:45;;;;;;;;;;;-1.50;99.90;;;-3.26;81.16;101966.63;2566956;30;138807;-40
2022/03/08 01:55:15;;;;;;;;;;;-1.40;99.90;;;-3.18;80.68;101959.03;2568259;30;138926;-40
2022/03/08 01:57:47;;;;;;;;;;;-1.30;99.90;;;-3.03;80.98;101955.41;2567169;30;137867;-40
2022/03/08 02:00:17;;;;;;;;;;;-1.30;99.90;;;-2.98;79.86;101957.78;2567750;30;138180;-40
2022/03/08 02:02:45;;;;;;;;;;;-1.20;99.90;;;-2.82;79.81;101955.00;2567718;30;138722;-40
2022/03/08 02:05:12;;;;;;;;;;;-1.10;99.90;;;-2.63;79.08;101953.84;2568501;30;137429;-40
2022/03/08 02:07:40;;;;;;;;;;;-1.00;99.90;;;-2.61;79.14;101954.59;2568419;30;137145;-40
2022/03/08 02:10:08;;;;;;;;;;;-0.90;99.90;;;-2.60;78.72;101951.81;2569113;30;138344;-40
2022/03/08 02:12:37;;;;;;;;;;;-0.80;99.90;;;-2.62;78.44;101942.22;2566088;30;138348;-40
2022/03/08 02:15:33;;;;;;;;;;;-0.80;99.90;;;-2.46;77.38;101934.88;2566901;30;137193;-40
2022/03/08 02:18:01;;;;;;;;;;;-0.70;99.90;;;-2.50;77.44;101925.38;2567643;30;137403;-40
2022/03/08 02:20:29;;;;;;;;;;;-0.70;99.90;;;-2.46;77.33;101928.69;2569346;30;138431;-40
2022/03/08 02:22:57;;;;;;;;;;;-0.60;99.90;;;-2.36;76.43;101924.47;2568085;30;137551;-41
2022/03/08 02:25:24;;;;;;;;;;;-0.60;99.90;;;-2.29;76.16;101930.28;2567097;30;137499;-40
2022/03/08 02:27:54;;;;;;;;;;;-0.50;99.90;;;-2.15;77.43;101925.81;2569619;30;136673;-40
2022/03/08 02:30:23;;;;;;;;;;;-0.50;99.90;;;-2.15;76.54;101925.81;2567795;30;138121;-40
2022/03/08 02:32:50;;;;;;;;;;;-0.40;99.90;;;-2.14;76.10;101920.38;2569770;30;137225;-40
2022/03/08 02:35:24;;;;;;;;;;;-0.40;99.90;;;-2.09;75.34;101920.06;2567911;30;137322;-40
2022/03/08 02:37:54;;;;;;;;;;;-0.40;99.90;;;-2.02;75.89;101921.38;2568520;30;137872;-41
2022/03/08 02:40:24;;;;;;;;;;;-0.30;99.90;;;-1.89;74.97;101916.88;2570472;30;139318;-41
2022/03/08 02:42:52;;;;;;;;;;;-0.20;99.90;;;-1.95;75.31;101911.97;2566773;30;136705;-40
2022/03/08 02:45:19;;;;;;;;;;;-0.20;99.90;;;-1.85;75.53;101914.03;2569043;30;139072;-40
2022/03/08 02:47:47;;;;;;;;;;;-0.10;99.90;;;-1.90;74.96;101901.81;2567346;30;137013;-40
2022/03/08 02:50:16;;;;;;;;;;;-0.10;99.90;;;-1.83;73.58;101910.28;2567274;30;138406;-41
2022/03/08 02:52:45;;;;;;;;;;;-0.10;99.90;;;-1.78;73.81;101921.50;2568268;30;136835;-40
2022/03/08 02:55:13;;;;;;;;;;;0.00;99.90;;;-1.81;73.97;101919.06;2568399;30;137442;-41
2022/03/08 02:57:41;;;;;;;;;;;0.00;99.90;;;-1.85;73.65;101925.56;2568770;30;136908;-41
2022/03/08 03:00:12;;;;;;;;;;;-0.10;99.90;;;-1.81;73.87;101926.25;2567906;30;139074;-40
2022/03/08 03:02:40;;;;;;;;;;;0.00;99.90;;;-1.76;74.00;101921.41;2567238;30;137002;-40
2022/03/08 03:05:08;;;;;;;;;;;0.00;99.90;;;-1.79;74.10;101921.63;2566884;30;138571;-41
2022/03/08 03:07:35;;;;;;;;;;;0.00;99.90;;;-1.77;73.49;101919.72;2568237;30;136972;-40
2022/03/08 03:10:06;;;;;;;;;;;0.00;99.90;;;-1.71;74.13;101919.28;2567929;30;138151;-40
2022/03/08 03:12:33;;;;;;;;;;;0.10;99.90;;;-1.73;73.63;101910.50;2567746;30;137238;-41
2022/03/08 03:15:01;;;;;;;;;;;0.10;99.90;;;-1.76;73.55;101910.72;2567166;30;138301;-40
2022/03/08 03:17:28;;;;;;;;;;;0.00;99.90;;;-1.83;74.00;101902.25;2568733;30;136947;-40
2022/03/08 03:19:56;;;;;;;;;;;0.00;99.90;;;-1.90;74.44;101901.81;2566691;30;138467;-40
2022/03/08 03:22:23;;;;;;;;;;;-0.10;99.90;;;-1.91;74.01;101901.91;2569106;30;137004;-41
2022/03/08 03:24:51;;;;;;;;;;;-0.10;99.90;;;-1.95;74.29;101900.41;2566661;30;138447;-41
2022/03/08 03:27:18;;;;;;;;;;;-0.20;99.90;;;-2.01;73.72;101904.34;2567687;30;136739;-40
2022/03/08 03:29:45;;;;;;;;;;;-0.20;99.90;;;-2.01;74.64;101904.34;2566812;30;137168;-40
2022/03/08 03:32:13;;;;;;;;;;;-0.20;99.90;;;-2.04;74.57;101891.19;2568797;30;137043;-40
2022/03/08 03:34:40;;;;;;;;;;;-0.30;99.90;;;-2.08;74.91;101901.22;2568480;30;138373;-41
2022/03/08 03:37:08;;;;;;;;;;;-0.30;99.90;;;-2.02;74.69;101897.28;2565013;30;138023;-40
2022/03/08 03:39:35;;;;;;;;;;;-0.30;99.90;;;-2.02;74.40;101894.63;2568242;30;138214;-40
2022/03/08 03:42:03;;;;;;;;;;;-0.30;99.90;;;-2.06;74.51;101882.41;2568094;30;137149;-41
2022/03/08 03:44:37;;;;;;;;;;;-0.30;99.90;;;-1.99;74.72;101894.41;2568077;30;136905;-40
2022/03/08 03:47:04;;;;;;;;;;;-0.20;99.90;;;-1.95;74.34;101890.56;2566257;30;137177;-40
2022/03/08 03:49:32;;;;;;;;;;;-0.20;99.90;;;-2.03;74.55;101885.72;2567776;30;138387;-41
2022/03/08 03:52:00;;;;;;;;;;;-0.20;99.90;;;-2.07;74.70;101881.53;2568540;30;138638;-41
2022/03/08 03:54:28;;;;;;;;;;;-0.20;99.90;;;-2.02;74.71;101884.75;2566514;30;137479;-40
2022/03/08 03:56:55;;;;;;;;;;;-0.30;99.90;;;-2.02;74.80;101879.41;2568650;30;136994;-41
2022/03/08 03:59:22;;;;;;;;;;;-0.30;99.90;;;-1.87;74.51;101876.66;2567566;30;139059;-40
2022/03/08 04:01:50;;;;;;;;;;;-0.20;99.90;;;-1.94;74.67;101870.03;2565788;30;137417;-40
2022/03/08 04:04:18;;;;;;;;;;;-0.20;99.90;;;-1.96;74.21;101878.16;2568599;30;138079;-41
2022/03/08 04:06:45;;;;;;;;;;;-0.20;99.90;;;-1.95;74.17;101866.47;2568489;30;137067;-40
2022/03/08 04:09:15;;;;;;;;;;;-0.20;99.90;;;-1.98;74.86;101869.38;2568041;30;137315;-40
2022/03/08 04:11:43;;;;;;;;;;;-0.20;99.90;;;-1.98;74.57;101861.34;2567275;30;137083;-40
2022/03/08 04:14:10;;;;;;;;;;;-0.20;99.90;;;-1.95;74.37;101863.81;2568286;30;139191;-40
2022/03/08 04:16:38;;;;;;;;;;;-0.20;99.90;;;-1.94;74.56;101862.84;2568166;30;137501;-41
2022/03/08 04:19:05;;;;;;;;;;;-0.20;99.90;;;-1.80;73.97;101856.53;2568171;30;137382;-40
2022/03/08 04:21:33;;;;;;;;;;;-0.10;99.90;;;-1.90;75.19;101850.13;2568031;30;137308;-40
2022/03/08 04:24:00;;;;;;;;;;;-0.10;99.90;;;-1.95;75.28;101847.75;2568497;30;137809;-41
2022/03/08 04:26:28;;;;;;;;;;;-0.20;99.90;;;-1.96;75.11;101861.25;2568997;30;137296;-40
2022/03/08 04:28:55;;;;;;;;;;;-0.20;99.90;;;-1.97;74.57;101855.03;2567223;30;137151;-40
2022/03/08 04:31:22;;;;;;;;;;;-0.20;99.90;;;-1.89;74.88;101858.03;2567471;30;136985;-41
2022/03/08 04:33:50;;;;;;;;;;;-0.10;99.90;;;-1.66;73.10;101855.59;2568986;30;138279;-40
2022/03/08 04:36:18;;;;;;;;;;;0.00;99.90;;;-1.66;73.37;101865.44;2567426;30;137851;-40
2022/03/08 04:38:45;;;;;;;;;;;0.00;99.90;;;-1.62;72.73;101866.94;2568697;30;138619;-41
2022/03/08 04:41:12;;;;;;;;;;;0.10;99.90;;;-1.49;73.24;101857.09;2569016;30;137027;-40
2022/03/08 04:43:40;;;;;;;;;;;0.20;99.90;;;-1.47;72.33;101852.47;2568164;30;137529;-40
2022/03/08 04:46:07;;;;;;;;;;;0.20;99.90;;;-1.49;72.25;101856.25;2568949;30;137873;-41
2022/03/08 04:48:35;;;;;;;;;;;0.20;99.90;;;-1.51;72.27;101853.66;2568960;30;137282;-40
2022/03/08 04:51:02;;;;;;;;;;;0.20;99.90;;;-1.53;72.83;101862.78;2567763;30;137083;-40
2022/03/08 04:53:29;;;;;;;;;;;0.20;99.90;;;-1.56;72.47;101857.66;2568247;30;138277;-41
2022/03/08 04:55:57;;;;;;;;;;;0.20;99.90;;;-1.60;72.16;101857.84;2568770;30;137320;-40
2022/03/08 04:58:24;;;;;;;;;;;0.20;99.90;;;-1.55;72.45;101864.72;2565730;30;138639;-40
2022/03/08 05:00:52;;;;;;;;;;;0.20;99.90;;;-1.61;72.25;101866.81;2568914;30;136766;-40
2022/03/08 05:03:19;;;;;;;;;;;0.20;99.90;;;-1.71;72.08;101864.91;2568059;30;137717;-40
2022/03/08 05:05:47;;;;;;;;;;;0.10;99.90;;;-1.56;72.87;101863.84;2567684;30;137197;-41
2022/03/08 05:08:14;;;;;;;;;;;0.10;99.90;;;-1.61;72.06;101866.81;2569630;30;139328;-40
2022/03/08 05:10:42;;;;;;;;;;;0.20;99.90;;;-1.67;72.47;101871.78;2567540;30;137546;-40
2022/03/08 05:13:09;;;;;;;;;;;0.10;99.90;;;-1.65;72.70;101861.81;2567072;30;139035;-41
2022/03/08 05:15:36;;;;;;;;;;;0.10;99.90;;;-1.53;71.56;101868.13;2568759;30;137506;-40
2022/03/08 05:18:04;;;;;;;;;;;0.20;99.90;;;-1.64;72.28;101866.19;2568654;30;138135;-40
2022/03/08 05:20:32;;;;;;;;;;;0.10;99.90;;;-1.66;71.71;101868.97;2567999;30;136749;-41
2022/03/08 05:23:00;;;;;;;;;;;0.10;99.90;;;-1.72;72.22;101864.06;2568516;30;138456;-40
2022/03/08 05:25:30;;;;;;;;;;;0.10;99.90;;;-1.83;72.03;101863.94;2569088;30;136948;-41
2022/03/08 05:27:58;;;;;;;;;;;0.00;99.90;;;-1.96;71.83;101845.22;2568558;30;138106;-40
2022/03/08 05:30:25;;;;;;;;;;;-0.10;99.90;;;-2.01;72.78;101858.88;2565889;30;137264;-40
2022/03/08 05:32:53;;;;;;;;;;;-0.20;99.90;;;-1.97;73.84;101855.03;2568993;30;138342;-40
2022/03/08 05:35:21;;;;;;;;;;;-0.20;99.90;;;-2.02;72.68;101851.81;2567136;30;136788;-40
2022/03/08 05:37:48;;;;;;;;;;;-0.20;99.90;;;-1.98;72.31;101853.31;2568368;30;137154;-40
2022/03/08 05:40:16;;;;;;;;;;;-0.20;99.90;;;-1.97;72.55;101855.03;2569519;30;137294;-41
2022/03/08 05:42:44;;;;;;;;;;;-0.20;99.90;;;-2.02;72.54;101857.16;2568229;30;137359;-40
2022/03/08 05:45:12;;;;;;;;;;;-0.20;99.90;;;-2.05;72.38;101860.91;2568281;30;136726;-40
2022/03/08 05:47:40;;;;;;;;;;;-0.30;99.90;;;-2.07;72.51;101862.00;2567759;30;138389;-40
2022/03/08 05:50:09;;;;;;;;;;;-0.30;99.90;;;-2.07;72.86;101864.66;2568254;30;136676;-41
2022/03/08 05:52:37;;;;;;;;;;;-0.30;99.90;;;-2.13;72.77;101865.06;2567846;30;138205;-41
2022/03/08 05:55:06;;;;;;;;;;;-0.30;99.90;;;-2.20;73.33;101860.13;2565011;38;136923;-40
2022/03/08 05:57:33;;;;;;;;;;;-0.40;99.90;;;-2.17;73.12;101861.75;2567567;30;138206;-40
2022/03/08 06:00:01;;;;;;;;;;;-0.40;99.90;;;-2.20;73.29;101857.44;2568614;30;136746;-41
2022/03/08 06:02:38;;;;;;;;;;;-0.40;99.90;;;-2.15;72.92;101862.50;2568514;30;137316;-41
2022/03/08 06:05:06;;;;;;;;;;;-0.40;99.90;;;-2.05;73.11;101862.75;2568965;30;137792;-40
2022/03/08 06:07:33;;;;;;;;;;;-0.30;99.90;;;-1.96;72.88;101858.59;2569765;30;136705;-41
2022/03/08 06:10:00;;;;;;;;;;;-0.30;99.90;;;-1.96;72.63;101867.44;2568908;30;137014;-40
2022/03/08 06:12:28;;;;;;;;;;;-0.20;99.90;;;-1.93;72.63;101872.59;2568499;30;138276;-41
2022/03/08 06:14:55;;;;;;;;;;;-0.20;99.90;;;-1.84;72.39;101871.09;2567234;30;138693;-41
2022/03/08 06:17:23;;;;;;;;;;;-0.10;99.90;;;-1.79;72.14;101874.31;2567656;30;137808;-40
2022/03/08 06:19:50;;;;;;;;;;;-0.10;99.90;;;-1.79;72.16;101877.00;2568646;30;136734;-40
2022/03/08 06:22:17;;;;;;;;;;;0.00;99.90;;;-1.63;72.07;101870.59;2568099;30;138053;-40
2022/03/08 06:24:45;;;;;;;;;;;0.10;99.90;;;-1.66;71.65;101871.66;2566759;30;136635;-41
2022/03/08 06:27:13;;;;;;;;;;;0.10;99.90;;;-1.49;70.80;101875.81;2568155;30;136873;-41
2022/03/08 06:29:40;;;;;;;;;;;0.20;99.90;;;-1.45;70.96;101876.47;2569546;30;137237;-40
2022/03/08 06:32:08;;;;;;;;;;;0.20;99.90;;;-1.31;70.84;101883.53;2566984;30;138480;-40
2022/03/08 06:34:35;;;;;;;;;;;0.30;99.90;;;-1.13;69.88;101886.72;2570047;30;137043;-40
2022/03/08 06:37:03;;;;;;;;;;;0.50;99.90;;;-1.17;69.72;101883.41;2568703;30;138183;-41
2022/03/08 06:39:31;;;;;;;;;;;0.50;99.90;;;-1.10;69.79;101891.84;2567924;30;137129;-41
2022/03/08 06:41:58;;;;;;;;;;;0.60;99.90;;;-0.98;69.68;101889.28;2568960;30;137443;-40
2022/03/08 06:44:25;;;;;;;;;;;0.60;99.90;;;-0.77;69.91;101897.56;2568423;30;137130;-40
2022/03/08 06:46:53;;;;;;;;;;;0.80;99.90;;;-0.74;68.33;101879.47;2567690;30;137836;-40
2022/03/08 06:49:20;;;;;;;;;;;0.90;99.90;;;-0.64;67.62;101881.44;2568566;30;137144;-40
2022/03/08 06:51:48;;;;;;;;;;;0.90;99.90;;;-0.61;68.63;101887.47;2567872;30;138322;-40
2022/03/08 06:54:18;;;;;;;;;;;1.00;99.90;;;-0.50;66.98;101883.13;2568672;30;137685;-40
2022/03/08 06:56:45;;;;;;;;;;;1.10;99.90;;;-0.40;67.91;101883.28;2565703;30;137831;-41
2022/03/08 06:59:12;;;;;;;;;;;1.20;99.90;;;-0.28;66.40;101882.34;2568788;30;136961;-40
2022/03/08 07:01:40;;;;;;;;;;;1.30;99.90;;;-0.23;66.15;101884.69;2568115;30;138346;-41
2022/03/08 07:04:07;;;;;;;;;;;1.30;99.90;;;-0.12;65.93;101890.13;2565241;30;137193;-40
2022/03/08 07:06:35;;;;;;;;;;;1.50;99.90;;;-0.08;66.00;101888.06;2568851;30;138450;-40
2022/03/08 07:14:01;;;;;;;;;;;1.50;99.90;;;0.23;65.01;101888.38;2570845;30;138031;-39
2022/03/08 07:16:28;;;;;;;;;;;1.80;99.90;;;0.40;64.47;101882.56;2569010;30;137506;-39
2022/03/08 07:18:56;;;;;;;;;;;1.90;99.90;;;0.58;63.22;101890.19;2568422;30;136962;-41
2022/03/08 07:21:23;;;;;;;;;;;2.00;99.90;;;0.66;63.72;101879.66;2567946;30;138356;-41
2022/03/08 07:23:51;;;;;;;;;;;2.20;99.90;;;0.80;63.11;101878.56;2565929;30;137373;-41
2022/03/08 07:26:18;;;;;;;;;;;2.30;99.90;;;0.91;63.18;101885.78;2571421;30;138283;-41
2022/03/08 07:28:46;;;;;;;;;;;2.40;99.90;;;1.08;62.47;101883.59;2568694;30;136980;-41
2022/03/08 07:31:13;;;;;;;;;;;2.60;99.90;;;1.17;61.77;101879.28;2571032;30;137520;-45
2022/03/08 07:33:41;;;;;;;;;;;2.70;99.90;;;1.28;62.17;101873.88;2571360;30;137669;-41
2022/03/08 07:36:08;;;;;;;;;;;2.80;99.90;;;1.42;61.74;101873.59;2568839;30;139015;-42
2022/03/08 07:38:36;;;;;;;;;;;2.90;99.90;;;1.61;61.24;101880.16;2569291;30;137776;-42
2022/03/08 07:41:04;;;;;;;;;;;3.00;99.90;;;1.68;60.37;101875.97;2570294;30;138413;-42
2022/03/08 07:43:34;;;;;;;;;;;3.20;99.90;;;1.88;59.02;101881.50;2569431;30;136765;-41
2022/03/08 07:46:03;;;;;;;;;;;3.30;99.90;;;1.95;59.89;101871.09;2568688;30;138205;-41
2022/03/08 07:48:31;;;;;;;;;;;3.40;99.90;;;2.18;58.87;101879.88;2568213;30;137974;-41
2022/03/08 07:50:59;;;;;;;;;;;3.60;99.90;;;2.27;58.42;101875.56;2570477;30;138212;-42
2022/03/08 07:53:27;;;;;;;;;;;3.80;99.90;;;2.37;58.20;101881.00;2570318;30;136750;-43
2022/03/08 07:55:54;;;;;;;;;;;3.80;99.90;;;2.51;58.10;101879.81;2567617;30;139299;-42
2022/03/08 07:58:22;;;;;;;;;;;3.90;99.90;;;2.56;57.80;101864.97;2570435;30;136653;-41
2022/03/08 08:00:49;;;;;;;;;;;4.00;99.90;;;2.76;56.98;101880.38;2569291;30;139533;-41
2022/03/08 08:03:17;;;;;;;;;;;4.20;99.90;;;2.92;56.65;101885.25;2570964;30;136999;-43
2022/03/08 08:05:44;;;;;;;;;;;4.30;99.90;;;3.04;56.66;101886.00;2569547;30;138781;-41
2022/03/08 08:08:12;;;;;;;;;;;4.40;99.90;;;3.16;56.06;101896.56;2569694;30;137034;-41
2022/03/08 08:10:39;;;;;;;;;;;4.60;99.90;;;3.24;56.17;101890.47;2569180;30;138606;-42
2022/03/08 08:13:07;;;;;;;;;;;4.70;99.90;;;3.31;56.84;101897.00;2569113;30;137319;-41
2022/03/08 08:15:36;;;;;;;;;;;4.70;99.90;;;3.43;55.71;101896.88;2571550;30;139000;-42
2022/03/08 08:18:09;;;;;;;;;;;4.80;99.90;;;3.57;54.57;101882.13;2570249;30;136905;-41
2022/03/08 08:20:36;;;;;;;;;;;4.90;99.90;;;3.69;54.66;101890.97;2569665;30;137435;-41
2022/03/08 08:23:04;;;;;;;;;;;5.10;99.90;;;3.82;53.98;101893.38;2571085;30;138060;-42
2022/03/08 08:25:31;;;;;;;;;;;5.20;99.90;;;3.89;53.42;101887.28;2570391;30;138298;-41
2022/03/08 08:27:58;;;;;;;;;;;5.30;99.90;;;4.02;53.54;101896.97;2568849;30;137015;-41
2022/03/08 08:30:26;;;;;;;;;;;5.40;99.80;;;4.10;53.42;101883.56;2569748;30;138339;-42
2022/03/08 08:32:53;;;;;;;;;;;5.50;99.50;;;4.21;52.56;101881.72;2570153;30;136740;-41
2022/03/08 08:35:21;;;;;;;;;;;5.60;98.90;;;4.27;52.37;101881.16;2567951;30;138605;-41
2022/03/08 08:37:49;;;;;;;;;;;5.70;98.80;;;4.39;50.93;101888.09;2571113;30;136847;-41
2022/03/08 08:40:16;;;;;;;;;;;5.80;97.90;;;4.45;52.27;101882.09;2569659;30;138455;-41
2022/03/08 08:42:44;;;;;;;;;;;5.80;98.30;;;4.50;50.40;101870.84;2570097;30;138019;-42
2022/03/08 08:45:13;;;;;;;;;;;5.90;97.10;;;4.57;50.24;101863.84;2569009;30;138690;-41
2022/03/08 08:47:41;;;;;;;;;;;6.00;97.00;;;4.70;50.33;101871.63;2571817;30;137176;-41
2022/03/08 08:50:09;;;;;;;;;;;6.10;97.00;;;4.82;48.17;101860.66;2568380;30;138377;-41
2022/03/08 08:52:36;;;;;;;;;;;6.20;95.70;;;4.82;48.01;101850.66;2570246;30;136985;-41
2022/03/08 08:55:04;;;;;;;;;;;6.20;95.20;;;4.98;48.58;101871.66;2568299;30;139763;-41
2022/03/08 08:57:37;;;;;;;;;;;6.30;95.70;;;5.05;49.86;101861.09;2571034;30;137475;-41
2022/03/08 09:00:07;;;;;;;;;;;6.40;96.60;;;5.18;46.93;101860.75;2571186;30;138220;-41
2022/03/08 09:02:35;;;;;;;;;;;6.60;94.40;;;5.23;47.36;101863.84;2569889;30;137276;-41
2022/03/08 09:05:03;;;;;;;;;;;6.60;94.30;;;5.28;46.90;101864.22;2569924;30;138068;-41
2022/03/08 09:07:30;;;;;;;;;;;6.70;93.90;;;5.37;48.57;101859.75;2568559;30;137143;-41
2022/03/08 09:09:58;;;;;;;;;;;6.70;94.70;;;5.43;47.18;101864.56;2571414;30;137365;-41
2022/03/08 09:12:25;;;;;;;;;;;6.80;94.00;;;5.42;46.91;101859.31;2569991;30;138133;-41
2022/03/08 09:14:53;;;;;;;;;;;6.80;93.60;;;5.50;47.13;101858.56;2569995;30;138546;-42
2022/03/08 09:17:21;;;;;;;;;;;6.90;93.60;;;5.65;46.19;101861.56;2569661;30;137003;-41
2022/03/08 09:19:49;;;;;;;;;;;7.00;93.00;;;5.75;45.16;101851.50;2569006;30;138962;-49
2022/03/08 09:22:16;;;;;;;;;;;7.10;92.30;;;5.85;45.81;101849.59;2567263;30;137456;-41
2022/03/08 09:24:43;;;;;;;;;;;7.20;92.70;;;5.95;44.22;101845.91;2569629;30;138642;-41
2022/03/08 09:27:11;;;;;;;;;;;7.30;91.40;;;6.07;43.74;101843.84;2569775;30;137091;-41
2022/03/08 09:29:41;;;;;;;;;;;7.40;91.10;;;6.12;44.00;101847.78;2569365;30;137254;-41
2022/03/08 09:32:08;;;;;;;;;;;7.50;91.00;;;6.14;44.62;101839.50;2568791;30;137017;-41
2022/03/08 09:34:38;;;;;;;;;;;7.50;91.20;;;6.15;42.73;101836.63;2569057;30;138381;-41
2022/03/08 09:37:07;;;;;;;;;;;7.60;89.40;;;6.11;42.43;101843.38;2570538;30;137226;-41
2022/03/08 09:39:35;;;;;;;;;;;7.60;88.50;;;6.08;43.28;101827.41;2571019;30;139097;-41
2022/03/08 09:42:03;;;;;;;;;;;7.60;89.00;;;6.11;43.29;101837.97;2569330;30;137169;-41
2022/03/08 09:44:31;;;;;;;;;;;7.60;89.20;;;6.15;42.91;101841.19;2570997;30;137470;-41
2022/03/08 09:46:59;;;;;;;;;;;7.60;88.60;;;6.26;43.85;101831.94;2570175;30;136702;-41
2022/03/08 09:49:27;;;;;;;;;;;7.60;89.90;;;6.35;43.27;101836.41;2570093;30;138122;-41
2022/03/08 09:51:54;;;;;;;;;;;7.70;89.10;;;6.42;44.06;101839.34;2569711;30;137108;-41
2022/03/08 09:54:22;;;;;;;;;;;7.80;90.00;;;6.49;41.94;101826.81;2570644;30;139125;-41
2022/03/08 09:56:49;;;;;;;;;;;7.90;86.70;;;6.66;42.43;101829.63;2569363;30;137880;-41
2022/03/08 09:59:18;;;;;;;;;;;8.00;87.70;;;6.80;43.25;101834.47;2569097;30;138858;-42
2022/03/08 10:01:47;;;;;;;;;;;8.10;88.60;;;6.90;42.34;101828.91;2569042;30;137276;-41
2022/03/08 10:04:19;;;;;;;;;;;8.20;87.40;;;6.98;41.96;101814.50;2569844;30;139086;-41
2022/03/08 10:07:14;;;;;;;;;;;8.30;87.20;;;7.03;40.44;101823.03;2570540;30;136963;-41
2022/03/08 10:09:55;;;;;;;;;;;8.40;83.70;;;6.97;40.20;101819.09;2569166;30;139284;-41
2022/03/08 10:12:23;;;;;;;;;;;8.40;83.70;;;7.01;41.91;101806.91;2569147;30;137746;-41
2022/03/08 10:14:51;;;;;;;;;;;8.40;85.30;;;7.03;40.62;101813.00;2569376;30;138219;-41
2022/03/08 10:17:38;;;;;;;;;;;8.40;83.30;;;7.16;42.04;101809.81;2567925;30;137722;-41
2022/03/08 10:20:10;;;;;;;;;;;8.50;85.50;;;7.24;40.72;101800.84;2570260;30;138134;-41
2022/03/08 10:22:39;;;;;;;;;;;8.60;82.80;;;7.16;40.39;101796.25;2568410;30;136789;-41
2022/03/08 10:25:12;;;;;;;;;;;8.60;81.70;;;7.18;40.99;101798.81;2570137;30;138305;-41
2022/03/08 10:27:52;;;;;;;;;;;8.60;82.20;;;7.27;41.25;101795.09;2569714;30;137201;-43
2022/03/08 10:30:20;;;;;;;;;;;8.60;82.70;;;7.36;40.69;101790.53;2569849;30;138052;-41
2022/03/08 10:33:02;;;;;;;;;;;8.70;82.70;;;7.45;40.05;101794.13;2568585;30;136996;-41
2022/03/08 10:35:37;;;;;;;;;;;8.80;81.40;;;7.48;41.04;101793.78;2569771;30;139063;-41
2022/03/08 10:38:07;;;;;;;;;;;8.90;82.50;;;7.56;40.22;101790.19;2570795;30;137832;-41
2022/03/08 10:40:36;;;;;;;;;;;8.90;81.40;;;7.56;42.21;101791.06;2568665;30;138253;-41
2022/03/08 10:43:06;;;;;;;;;;;8.90;83.50;;;7.66;40.49;101793.59;2570732;30;137162;-41
2022/03/08 10:45:37;;;;;;;;;;;9.00;81.10;;;7.63;39.30;101793.94;2568646;30;138122;-41
2022/03/08 10:48:07;;;;;;;;;;;9.00;79.40;;;7.68;39.57;101774.41;2570199;30;136903;-41
2022/03/08 10:50:37;;;;;;;;;;;9.10;79.70;;;7.66;38.67;101779.16;2568211;30;138127;-41
2022/03/08 10:53:06;;;;;;;;;;;9.00;77.80;;;7.61;38.80;101779.69;2568980;30;136965;-41
2022/03/08 10:55:39;;;;;;;;;;;9.00;78.10;;;7.76;39.45;101758.13;2568050;30;138763;-41
2022/03/08 10:58:12;;;;;;;;;;;9.10;79.00;;;7.91;40.54;101767.25;2569007;30;137407;-41
2022/03/08 11:00:42;;;;;;;;;;;9.20;80.70;;;7.99;39.58;101754.69;2569933;30;139347;-41
2022/03/08 11:03:16;;;;;;;;;;;9.30;79.30;;;8.05;39.50;101759.44;2568185;30;138433;-41
2022/03/08 11:05:50;;;;;;;;;;;9.40;79.10;;;8.17;38.23;101755.31;2570157;30;139742;-41
2022/03/08 11:08:18;;;;;;;;;;;9.40;77.70;;;8.16;37.81;101745.47;2567298;30;137314;-41
2022/03/08 11:10:47;;;;;;;;;;;9.50;75.80;;;8.20;37.75;101738.66;2570223;30;137049;-41
2022/03/08 11:13:16;;;;;;;;;;;9.60;75.80;;;8.32;37.95;101739.13;2569155;30;137258;-41
2022/03/08 11:15:44;;;;;;;;;;;9.60;76.30;;;8.46;36.62;101739.44;2567982;30;138259;-41
2022/03/08 11:18:15;;;;;;;;;;;9.70;74.40;;;8.54;37.65;101741.31;2567554;30;137371;-41
2022/03/08 11:20:47;;;;;;;;;;;9.80;75.70;;;8.53;37.79;101742.34;2568437;30;140205;-41